Coahoma, Mississippi
Current Conditions -  °F | °C
As of 3:35 PM on Saturday 25 Oct 2014 (Local Time) from KCKM Reporting Station
Scattered Clouds Scattered Clouds  
Wind Chill: 82°   Ceiling: Unl
Heat Index: 84°   Visibility: 10mi
Dew Point: 64°   Wind: 10mph
Humidity: 54%   Direction: 250°WSW
Pressure: 30.04"   Gusts: NA
Location:  34.37°N, 90.52°W
Report Text: KCKM 252035Z AUTO 25009KT 10SM SCT050 28/18 A3004 RMK AO1
Loading
Personal Weather Stations






























Interactive Weather Map
Tropical Storm Tracking
New forecast layout! Learn more

10-Day Weather Forecast

Advertisements
Track Severe Weather on mobile